createdAt,value
2023-04-04T00:02:19.081Z,1.43
2023-04-04T00:04:45.937Z,1.45
2023-04-04T00:07:12.312Z,1.47
2023-04-04T00:09:38.697Z,1.45
2023-04-04T00:12:05.805Z,1.43
2023-04-04T00:14:32.207Z,1.46
2023-04-04T00:16:58.559Z,1.41
2023-04-04T00:19:25.712Z,1.43
2023-04-04T00:21:52.057Z,1.52
2023-04-04T00:24:18.479Z,1.52
2023-04-04T00:26:44.899Z,1.43
2023-04-04T00:29:11.525Z,1.50
2023-04-04T00:31:38.158Z,1.45
2023-04-04T00:34:04.519Z,1.50
2023-04-04T00:36:30.899Z,1.44
2023-04-04T00:38:57.318Z,1.42
2023-04-04T00:41:23.798Z,1.36
2023-04-04T00:43:50.354Z,1.40
2023-04-04T00:46:18.849Z,1.31
2023-04-04T00:48:45.472Z,1.43
2023-04-04T00:51:12.022Z,1.39
2023-04-04T00:53:38.466Z,1.35
2023-04-04T00:56:05.565Z,1.34
2023-04-04T00:58:31.971Z,1.37
2023-04-04T01:01:00.166Z,1.32
2023-04-04T01:03:26.588Z,1.29
2023-04-04T01:05:52.937Z,1.32
2023-04-04T01:08:22.996Z,1.39
2023-04-04T01:10:50.526Z,1.32
2023-04-04T01:13:16.886Z,1.29
2023-04-04T01:15:43.699Z,1.21
2023-04-04T01:18:13.194Z,1.20
2023-04-04T01:20:52.733Z,1.21
2023-04-04T01:23:21.378Z,1.19
2023-04-04T01:25:48.676Z,1.20
2023-04-04T01:28:15.030Z,1.19
2023-04-04T01:30:42.517Z,1.14
2023-04-04T01:33:27.898Z,1.18
2023-04-04T01:36:03.333Z,1.20
2023-04-04T01:38:52.558Z,1.16
2023-04-04T01:41:21.422Z,1.19
2023-04-04T01:43:48.051Z,1.13
2023-04-04T01:46:17.261Z,1.20
2023-04-04T01:48:45.630Z,1.13
2023-04-04T01:51:12.499Z,1.08
2023-04-04T01:53:38.917Z,1.06
2023-04-04T01:56:05.483Z,1.00
2023-04-04T01:58:32.165Z,1.08
2023-04-04T02:00:58.592Z,1.19
2023-04-04T02:03:24.933Z,1.02
2023-04-04T02:05:51.370Z,1.06
2023-04-04T02:08:18.143Z,1.02
2023-04-04T02:10:44.469Z,1.02
2023-04-04T02:13:11.068Z,1.01
2023-04-04T02:15:37.527Z,1.20
2023-04-04T02:18:04.260Z,1.04
2023-04-04T02:20:30.629Z,1.04
2023-04-04T02:22:57.124Z,0.94
2023-04-04T02:25:25.399Z,0.84
2023-04-04T02:27:51.823Z,0.89
2023-04-04T02:30:19.419Z,0.95
2023-04-04T02:32:47.148Z,1.01
2023-04-04T02:35:13.636Z,0.81
2023-04-04T02:37:39.976Z,0.80
2023-04-04T02:40:07.242Z,0.84
2023-04-04T02:42:33.612Z,0.77
2023-04-04T02:44:59.992Z,0.83
2023-04-04T02:47:26.618Z,0.80
2023-04-04T02:49:53.032Z,0.70
2023-04-04T02:52:21.191Z,0.65
2023-04-04T02:54:47.836Z,0.69
2023-04-04T02:57:14.249Z,0.57
2023-04-04T02:59:40.609Z,0.58
2023-04-04T03:02:07.191Z,0.52
2023-04-04T03:04:33.621Z,0.51
2023-04-04T03:07:00.022Z,0.49
2023-04-04T03:09:26.349Z,0.48
2023-04-04T03:11:52.680Z,0.45
2023-04-04T03:14:19.050Z,0.38
2023-04-04T03:16:45.538Z,0.34
2023-04-04T03:19:12.000Z,0.25
2023-04-04T03:21:38.481Z,0.21
2023-04-04T03:24:04.855Z,0.25
2023-04-04T03:26:31.212Z,0.22
2023-04-04T03:28:57.595Z,0.30
2023-04-04T03:31:23.964Z,0.21
2023-04-04T03:33:50.432Z,0.32
2023-04-04T03:36:17.141Z,0.22
2023-04-04T03:38:43.502Z,0.33
2023-04-04T03:41:09.911Z,0.25
2023-04-04T03:43:36.304Z,0.24
2023-04-04T03:46:04.326Z,0.28
2023-04-04T03:48:31.596Z,0.28
2023-04-04T03:50:58.249Z,0.26
2023-04-04T03:53:25.166Z,0.24
2023-04-04T03:55:52.781Z,0.37
2023-04-04T03:58:19.429Z,0.35
2023-04-04T04:00:45.894Z,0.30
2023-04-04T04:03:14.729Z,0.28
2023-04-04T04:05:42.312Z,0.28
2023-04-04T04:08:08.673Z,0.22
2023-04-04T04:10:35.035Z,0.27
2023-04-04T04:13:01.397Z,0.23
2023-04-04T04:15:29.366Z,0.28
2023-04-04T04:17:55.856Z,0.22
2023-04-04T04:20:22.517Z,0.19
2023-04-04T04:22:49.659Z,0.19
2023-04-04T04:25:16.950Z,0.16
2023-04-04T04:27:43.401Z,0.26
2023-04-04T04:30:09.955Z,0.29
2023-04-04T04:32:36.373Z,0.29
2023-04-04T04:35:03.259Z,0.36
2023-04-04T04:37:29.591Z,0.27
2023-04-04T04:39:56.209Z,0.25
2023-04-04T04:42:22.756Z,0.20
2023-04-04T04:44:49.155Z,0.14
2023-04-04T04:47:15.521Z,0.21
2023-04-04T04:49:43.475Z,0.27
2023-04-04T04:52:09.850Z,0.27
2023-04-04T04:54:36.252Z,0.21
2023-04-04T04:57:02.715Z,0.19
2023-04-04T04:59:29.492Z,0.13
2023-04-04T05:01:55.908Z,0.23
2023-04-04T05:04:22.305Z,0.23
2023-04-04T05:06:49.065Z,0.25
2023-04-04T05:09:15.487Z,0.39
2023-04-04T05:11:41.984Z,0.31
2023-04-04T05:14:08.363Z,0.15
2023-04-04T05:16:34.777Z,0.18
2023-04-04T05:19:01.203Z,0.27
2023-04-04T05:21:27.962Z,0.24
2023-04-04T05:23:54.970Z,0.35
2023-04-04T05:26:21.326Z,0.34
2023-04-04T05:28:47.858Z,0.26
2023-04-04T05:31:14.210Z,0.37
2023-04-04T05:33:40.629Z,0.41
2023-04-04T05:36:07.118Z,0.30
2023-04-04T05:38:33.492Z,0.39
2023-04-04T05:40:59.849Z,0.38
2023-04-04T05:43:26.195Z,0.33
2023-04-04T05:45:52.598Z,0.19
2023-04-04T05:48:18.959Z,0.29
2023-04-04T05:50:46.884Z,0.40
2023-04-04T05:53:13.266Z,0.33
2023-04-04T05:55:39.654Z,0.33
2023-04-04T05:58:06.012Z,0.34
2023-04-04T06:00:32.737Z,0.41
2023-04-04T06:02:59.292Z,0.55
2023-04-04T06:05:25.748Z,0.64
2023-04-04T06:07:52.135Z,0.60
2023-04-04T06:10:18.591Z,0.66
2023-04-04T06:12:44.933Z,0.67
2023-04-04T06:15:11.674Z,0.63
2023-04-04T06:17:38.046Z,0.76
2023-04-04T06:20:05.122Z,0.72
2023-04-04T06:22:31.975Z,0.71
2023-04-04T06:24:58.470Z,0.36
2023-04-04T06:27:24.834Z,0.51
2023-04-04T06:29:51.250Z,0.52
2023-04-04T06:32:17.866Z,0.58
2023-04-04T06:34:44.276Z,0.66
2023-04-04T06:37:10.881Z,0.63
2023-04-04T06:39:37.391Z,0.49
2023-04-04T06:42:03.893Z,0.60
2023-04-04T06:44:30.506Z,0.55
2023-04-04T06:46:57.039Z,0.63
2023-04-04T06:49:23.567Z,0.78
2023-04-04T06:51:50.907Z,0.85
2023-04-04T06:54:18.569Z,0.80
2023-04-04T06:56:44.923Z,0.89
2023-04-04T06:59:12.118Z,0.85
2023-04-04T07:01:38.587Z,0.96
2023-04-04T07:04:04.953Z,0.99
2023-04-04T07:06:31.425Z,1.01
2023-04-04T07:08:57.826Z,1.04
2023-04-04T07:11:24.279Z,1.08
2023-04-04T07:13:50.761Z,1.02
2023-04-04T07:16:17.239Z,1.07
2023-04-04T07:18:44.296Z,1.23
2023-04-04T07:21:10.661Z,1.12
2023-04-04T07:23:37.346Z,1.41
2023-04-04T07:26:03.743Z,1.34
2023-04-04T07:28:30.222Z,1.32
2023-04-04T07:31:03.499Z,1.37
2023-04-04T07:33:29.862Z,1.57
2023-04-04T07:35:56.259Z,1.46
2023-04-04T07:38:22.826Z,1.36
2023-04-04T07:40:50.102Z,1.54
2023-04-04T07:43:16.628Z,1.55
2023-04-04T07:45:43.131Z,1.66
2023-04-04T07:48:09.541Z,1.71
2023-04-04T07:50:35.891Z,1.59
2023-04-04T07:53:02.486Z,1.52
2023-04-04T07:55:28.951Z,1.78
2023-04-04T07:57:55.330Z,1.81
2023-04-04T08:00:22.650Z,1.79
2023-04-04T08:02:53.665Z,1.91
2023-04-04T08:05:20.272Z,1.90
2023-04-04T08:07:47.254Z,1.81
2023-04-04T08:10:13.955Z,1.85
2023-04-04T08:12:40.616Z,1.73
2023-04-04T08:15:07.329Z,1.62
2023-04-04T08:17:33.693Z,1.76
2023-04-04T08:20:00.193Z,1.63
2023-04-04T08:22:27.079Z,1.85
2023-04-04T08:24:53.424Z,1.88
2023-04-04T08:27:19.762Z,2.00
2023-04-04T08:29:47.995Z,1.93
2023-04-04T08:32:15.048Z,1.98
2023-04-04T08:34:41.434Z,1.92
2023-04-04T08:37:08.715Z,2.08
2023-04-04T08:39:35.079Z,1.93
2023-04-04T08:42:06.095Z,2.09
2023-04-04T08:44:34.065Z,2.12
2023-04-04T08:47:05.385Z,2.06
2023-04-04T08:49:35.979Z,2.03
2023-04-04T08:52:03.267Z,2.34
2023-04-04T08:54:31.226Z,2.31
2023-04-04T08:56:58.148Z,2.21
2023-04-04T08:59:24.835Z,2.47
2023-04-04T09:02:04.340Z,2.59
2023-04-04T09:04:31.833Z,2.60
2023-04-04T09:06:59.313Z,2.40
2023-04-04T09:09:26.449Z,2.40
2023-04-04T09:11:53.799Z,2.43
2023-04-04T09:14:21.178Z,2.39
2023-04-04T09:16:47.570Z,2.15
2023-04-04T09:19:13.986Z,2.33
2023-04-04T09:21:40.370Z,2.40
2023-04-04T09:24:07.053Z,2.76
2023-04-04T09:26:47.642Z,2.82
2023-04-04T09:29:14.603Z,2.70
2023-04-04T09:31:41.869Z,2.79
2023-04-04T09:34:08.299Z,2.89
2023-04-04T09:36:35.093Z,2.88
2023-04-04T09:39:03.178Z,2.93
2023-04-04T09:41:29.963Z,3.02
2023-04-04T09:43:57.823Z,2.84
2023-04-04T09:46:25.182Z,2.80
2023-04-04T09:48:51.736Z,2.73
2023-04-04T09:51:18.137Z,2.51
2023-04-04T09:53:49.266Z,2.60
2023-04-04T09:56:15.728Z,2.54
2023-04-04T09:59:00.208Z,2.54
2023-04-04T10:01:30.000Z,2.58
2023-04-04T10:03:58.082Z,2.72
2023-04-04T10:06:25.428Z,2.84
2023-04-04T10:08:51.878Z,2.83
2023-04-04T10:11:30.704Z,2.90
2023-04-04T10:13:57.678Z,2.92
2023-04-04T10:16:25.719Z,2.85
2023-04-04T10:18:52.649Z,2.98
2023-04-04T10:21:19.822Z,2.82
2023-04-04T10:23:48.424Z,2.77
2023-04-04T10:26:14.995Z,2.78
2023-04-04T10:28:42.504Z,2.73
2023-04-04T10:31:24.350Z,2.74
2023-04-04T10:33:50.700Z,2.90
2023-04-04T10:36:23.089Z,2.93
2023-04-04T10:38:58.914Z,2.83
2023-04-04T10:41:29.908Z,2.91
2023-04-04T10:44:00.717Z,2.93
2023-04-04T10:46:31.872Z,2.92
2023-04-04T10:49:00.275Z,3.24
2023-04-04T10:51:27.073Z,3.11
2023-04-04T10:53:54.735Z,3.24
2023-04-04T10:56:21.763Z,3.12
2023-04-04T10:58:49.347Z,3.16
2023-04-04T11:01:20.885Z,3.24
2023-04-04T11:04:20.394Z,3.19
2023-04-04T11:07:07.820Z,3.32
2023-04-04T11:09:53.503Z,3.30
2023-04-04T11:12:38.431Z,3.08
2023-04-04T11:15:12.951Z,3.17
2023-04-04T11:17:57.639Z,3.21
2023-04-04T11:20:34.706Z,3.33
2023-04-04T11:23:08.950Z,3.31
2023-04-04T11:25:42.516Z,3.51
2023-04-04T11:28:33.878Z,3.42
2023-04-04T11:31:18.582Z,3.56
2023-04-04T11:34:03.168Z,3.59
2023-04-04T11:36:36.047Z,3.48
2023-04-04T11:39:28.684Z,3.51
2023-04-04T11:42:06.832Z,3.34
2023-04-04T11:44:39.634Z,3.40
2023-04-04T11:47:05.951Z,3.82
2023-04-04T11:49:39.584Z,3.41
2023-04-04T11:52:08.989Z,3.68
2023-04-04T11:54:37.583Z,3.61
2023-04-04T11:57:06.361Z,3.60
2023-04-04T11:59:32.912Z,3.55
2023-04-04T12:02:01.142Z,3.61
2023-04-04T12:04:27.616Z,3.69
2023-04-04T12:06:56.525Z,3.65
2023-04-04T12:09:25.342Z,3.81
2023-04-04T12:11:52.286Z,3.96
2023-04-04T12:14:19.807Z,4.17
2023-04-04T12:16:51.445Z,4.18
2023-04-04T12:19:18.607Z,4.05
2023-04-04T12:21:49.625Z,3.90
2023-04-04T12:24:16.678Z,3.89
2023-04-04T12:26:46.018Z,3.87
2023-04-04T12:29:15.216Z,3.98
2023-04-04T12:31:44.601Z,3.88
2023-04-04T12:34:19.148Z,3.91
2023-04-04T12:36:49.684Z,4.16
2023-04-04T12:39:17.106Z,4.03
2023-04-04T12:41:53.224Z,4.13
2023-04-04T12:44:30.386Z,4.05
2023-04-04T12:47:01.275Z,4.27
2023-04-04T12:49:32.860Z,4.27
2023-04-04T12:52:04.942Z,4.23
2023-04-04T12:54:33.112Z,4.14
2023-04-04T12:57:04.130Z,4.23
2023-04-04T12:59:32.893Z,4.42
2023-04-04T13:02:07.334Z,4.46
2023-04-04T13:04:34.069Z,4.54
2023-04-04T13:07:01.861Z,4.44
2023-04-04T13:09:28.464Z,4.45
2023-04-04T13:12:05.793Z,4.23
2023-04-04T13:14:57.890Z,4.15
2023-04-04T13:17:24.381Z,4.07
2023-04-04T13:19:52.281Z,4.16
2023-04-04T13:22:18.808Z,4.33
2023-04-04T13:24:45.152Z,4.56
2023-04-04T13:27:11.512Z,4.56
2023-04-04T13:29:37.889Z,4.46
2023-04-04T13:32:04.852Z,4.56
2023-04-04T13:34:31.201Z,4.60
2023-04-04T13:36:57.808Z,4.77
2023-04-04T13:39:24.331Z,5.05
2023-04-04T13:41:51.298Z,5.05
2023-04-04T13:44:17.818Z,4.91
2023-04-04T13:46:44.213Z,5.12
2023-04-04T13:49:11.018Z,5.13
2023-04-04T13:51:37.502Z,4.91
2023-04-04T13:54:03.868Z,4.80
2023-04-04T13:56:30.465Z,4.85
2023-04-04T13:58:57.024Z,4.90
2023-04-04T14:01:23.475Z,5.20
2023-04-04T14:03:49.931Z,5.46
2023-04-04T14:06:16.355Z,5.75
2023-04-04T14:08:42.767Z,5.51
2023-04-04T14:11:09.169Z,5.67
2023-04-04T14:13:36.658Z,5.61
2023-04-04T14:16:03.089Z,5.58
2023-04-04T14:18:29.513Z,5.47
2023-04-04T14:20:55.990Z,5.26
2023-04-04T14:23:22.505Z,5.28
2023-04-04T14:25:50.614Z,5.60
2023-04-04T14:28:17.118Z,5.85
2023-04-04T14:30:43.491Z,5.95
2023-04-04T14:33:09.914Z,6.10
2023-04-04T14:35:36.473Z,6.01
2023-04-04T14:38:02.876Z,6.11
2023-04-04T14:40:29.417Z,6.11
2023-04-04T14:42:55.764Z,6.06
2023-04-04T14:45:22.436Z,5.92
2023-04-04T14:47:48.838Z,5.97
2023-04-04T14:50:15.420Z,6.00
2023-04-04T14:52:41.841Z,6.18
2023-04-04T14:55:09.855Z,6.34
2023-04-04T14:57:46.971Z,6.39
2023-04-04T15:00:23.758Z,6.42
2023-04-04T15:02:50.926Z,6.60
2023-04-04T15:05:17.749Z,6.66
2023-04-04T15:07:46.295Z,6.67
2023-04-04T15:10:12.768Z,6.78
2023-04-04T15:12:39.510Z,6.67
2023-04-04T15:15:06.403Z,6.53
2023-04-04T15:17:32.745Z,6.68
2023-04-04T15:19:59.789Z,6.73
2023-04-04T15:22:26.262Z,6.65
2023-04-04T15:24:52.630Z,6.21
2023-04-04T15:27:18.997Z,5.91
2023-04-04T15:29:45.368Z,6.02
2023-04-04T15:32:11.824Z,5.95
2023-04-04T15:34:38.329Z,5.89
2023-04-04T15:37:04.746Z,5.92
2023-04-04T15:39:33.054Z,6.23
2023-04-04T15:42:04.100Z,6.36
2023-04-04T15:44:30.464Z,6.32
2023-04-04T15:46:56.807Z,6.70
2023-04-04T15:49:23.178Z,7.15
2023-04-04T15:51:49.534Z,7.07
2023-04-04T15:54:15.882Z,7.14
2023-04-04T15:56:42.256Z,7.07
2023-04-04T15:59:08.652Z,6.91
2023-04-04T16:01:36.769Z,6.80
2023-04-04T16:04:03.409Z,6.75
2023-04-04T16:06:31.208Z,6.93
2023-04-04T16:08:57.790Z,6.97
2023-04-04T16:11:24.190Z,6.72
2023-04-04T16:13:50.745Z,6.13
2023-04-04T16:16:18.240Z,5.89
2023-04-04T16:18:44.769Z,5.62
2023-04-04T16:21:11.187Z,5.42
2023-04-04T16:23:38.996Z,5.29
2023-04-04T16:26:05.598Z,5.32
2023-04-04T16:28:32.013Z,5.29
2023-04-04T16:30:59.434Z,5.18
2023-04-04T16:33:25.989Z,5.23
2023-04-04T16:35:52.478Z,5.27
2023-04-04T16:38:18.836Z,5.22
2023-04-04T16:40:45.375Z,5.37
2023-04-04T16:43:11.867Z,5.27
2023-04-04T16:45:38.228Z,5.07
2023-04-04T16:48:04.626Z,5.27
2023-04-04T16:50:31.025Z,5.63
2023-04-04T16:52:57.404Z,5.79
2023-04-04T16:55:26.213Z,5.80
2023-04-04T16:57:53.690Z,5.64
2023-04-04T17:00:20.473Z,5.27
2023-04-04T17:02:46.857Z,5.24
2023-04-04T17:05:14.193Z,5.26
2023-04-04T17:07:41.090Z,5.14
2023-04-04T17:10:11.523Z,5.10
2023-04-04T17:12:39.183Z,5.04
2023-04-04T17:15:06.782Z,5.21
2023-04-04T17:17:33.236Z,5.12
2023-04-04T17:19:59.787Z,5.00
2023-04-04T17:22:26.190Z,4.98
2023-04-04T17:24:52.704Z,4.85
2023-04-04T17:27:19.086Z,4.77
2023-04-04T17:29:45.620Z,4.73
2023-04-04T17:32:12.478Z,4.72
2023-04-04T17:34:38.955Z,4.66
2023-04-04T17:37:05.372Z,4.59
2023-04-04T17:39:31.915Z,4.42
2023-04-04T17:41:58.309Z,4.36
2023-04-04T17:44:24.641Z,4.38
2023-04-04T17:46:51.029Z,4.35
2023-04-04T17:49:19.669Z,4.34
2023-04-04T17:51:50.206Z,4.30
2023-04-04T17:54:17.254Z,4.26
2023-04-04T17:56:46.984Z,4.31
2023-04-04T17:59:14.635Z,4.22
2023-04-04T18:01:41.267Z,4.20
2023-04-04T18:04:08.162Z,4.26
2023-04-04T18:06:34.634Z,4.20
2023-04-04T18:09:01.100Z,4.25
2023-04-04T18:11:27.912Z,4.18
2023-04-04T18:13:54.328Z,4.19
2023-04-04T18:16:20.712Z,4.14
2023-04-04T18:18:47.164Z,4.06
2023-04-04T18:21:13.644Z,4.04
2023-04-04T18:23:40.086Z,4.04
2023-04-04T18:26:06.940Z,3.96
2023-04-04T18:28:33.322Z,3.98
2023-04-04T18:30:59.711Z,4.05
2023-04-04T18:33:27.153Z,3.98
2023-04-04T18:35:54.580Z,3.94
2023-04-04T18:38:21.288Z,3.93
2023-04-04T18:40:47.659Z,3.95
2023-04-04T18:43:14.308Z,3.90
2023-04-04T18:45:41.484Z,3.91
2023-04-04T18:48:08.556Z,3.89
2023-04-04T18:50:35.279Z,3.88
2023-04-04T18:53:01.736Z,3.83
2023-04-04T18:55:28.105Z,3.93
2023-04-04T18:57:54.458Z,3.97
2023-04-04T19:00:21.184Z,3.88
2023-04-04T19:02:47.680Z,3.80
2023-04-04T19:05:14.920Z,3.97
2023-04-04T19:07:44.677Z,3.98
2023-04-04T19:10:11.064Z,3.93
2023-04-04T19:12:37.407Z,3.93
2023-04-04T19:15:05.230Z,3.79
2023-04-04T19:17:31.690Z,3.79
2023-04-04T19:19:58.092Z,3.77
2023-04-04T19:22:24.449Z,3.90
2023-04-04T19:24:51.152Z,3.85
2023-04-04T19:27:17.639Z,3.89
2023-04-04T19:29:43.978Z,3.88
2023-04-04T19:32:14.077Z,3.80
2023-04-04T19:34:42.822Z,3.75
2023-04-04T19:37:13.660Z,3.73
2023-04-04T19:39:42.177Z,3.74
2023-04-04T19:42:09.288Z,3.79
2023-04-04T19:44:40.573Z,3.75
2023-04-04T19:47:09.327Z,3.63
2023-04-04T19:49:37.957Z,3.63
2023-04-04T19:52:05.651Z,3.64
2023-04-04T19:54:34.645Z,3.68
2023-04-04T19:57:03.849Z,3.62
2023-04-04T20:00:08.806Z,3.63
2023-04-04T20:02:47.710Z,3.65
2023-04-04T20:05:29.125Z,3.65
2023-04-04T20:07:55.739Z,3.57
2023-04-04T20:10:40.609Z,3.60
2023-04-04T20:13:08.459Z,3.57
2023-04-04T20:15:43.827Z,3.54
2023-04-04T20:18:10.435Z,3.58
2023-04-04T20:20:49.067Z,3.51
2023-04-04T20:23:16.353Z,3.45
2023-04-04T20:25:42.911Z,3.48
2023-04-04T20:28:26.612Z,3.48
2023-04-04T20:30:54.103Z,3.39
2023-04-04T20:33:35.390Z,3.33
2023-04-04T20:36:20.295Z,3.24
2023-04-04T20:38:47.895Z,3.24
2023-04-04T20:41:20.618Z,3.20
2023-04-04T20:43:57.838Z,3.16
2023-04-04T20:46:26.333Z,3.12
2023-04-04T20:48:56.438Z,3.07
2023-04-04T20:51:31.332Z,3.05
2023-04-04T20:54:02.573Z,3.06
2023-04-04T20:56:44.621Z,3.07
2023-04-04T20:59:32.300Z,3.06
2023-04-04T21:02:07.989Z,3.09
2023-04-04T21:04:34.944Z,3.04
2023-04-04T21:07:01.384Z,3.05
2023-04-04T21:09:28.825Z,2.99
2023-04-04T21:11:58.361Z,3.04
2023-04-04T21:14:31.473Z,2.99
2023-04-04T21:16:57.847Z,3.04
2023-04-04T21:19:24.517Z,3.06
2023-04-04T21:21:50.967Z,3.04
2023-04-04T21:24:17.302Z,3.01
2023-04-04T21:26:43.997Z,3.10
2023-04-04T21:29:21.511Z,3.02
2023-04-04T21:31:49.344Z,3.01
2023-04-04T21:34:18.108Z,2.98
2023-04-04T21:36:45.245Z,2.94
2023-04-04T21:39:14.561Z,3.05
2023-04-04T21:41:43.601Z,3.04
2023-04-04T21:44:10.419Z,2.97
2023-04-04T21:46:39.027Z,3.06
2023-04-04T21:49:06.812Z,3.10
2023-04-04T21:51:33.432Z,2.94
2023-04-04T21:54:00.914Z,2.92
2023-04-04T21:56:31.147Z,2.88
2023-04-04T21:58:58.634Z,2.84
2023-04-04T22:01:25.266Z,2.80
2023-04-04T22:03:51.753Z,2.79
2023-04-04T22:06:22.424Z,2.78
2023-04-04T22:08:48.814Z,2.79
2023-04-04T22:11:19.245Z,2.85
2023-04-04T22:13:48.191Z,2.76
2023-04-04T22:16:16.789Z,2.78
2023-04-04T22:18:48.076Z,2.74
2023-04-04T22:21:15.565Z,2.79
2023-04-04T22:23:42.593Z,2.76
2023-04-04T22:26:14.111Z,2.72
2023-04-04T22:28:42.191Z,2.80
2023-04-04T22:31:08.759Z,2.71
2023-04-04T22:33:35.245Z,2.66
2023-04-04T22:36:02.038Z,2.66
2023-04-04T22:38:29.487Z,2.71
2023-04-04T22:40:57.474Z,2.72
2023-04-04T22:43:25.610Z,2.78
2023-04-04T22:45:52.761Z,2.81
2023-04-04T22:48:22.749Z,2.70
2023-04-04T22:50:56.053Z,2.70
2023-04-04T22:53:24.764Z,2.78
2023-04-04T22:55:58.118Z,2.71
2023-04-04T22:58:24.489Z,2.68
2023-04-04T23:00:50.834Z,2.74
2023-04-04T23:03:17.186Z,2.63
2023-04-04T23:05:43.534Z,2.56
2023-04-04T23:08:09.966Z,2.60
2023-04-04T23:10:36.800Z,2.66
2023-04-04T23:13:03.344Z,2.62
2023-04-04T23:15:29.741Z,2.63
2023-04-04T23:17:56.280Z,2.65
2023-04-04T23:20:24.012Z,2.68
2023-04-04T23:22:50.805Z,2.71
2023-04-04T23:25:17.758Z,2.77
2023-04-04T23:27:44.477Z,2.76
2023-04-04T23:30:11.170Z,2.65
2023-04-04T23:32:37.693Z,2.64
2023-04-04T23:35:04.282Z,2.65
2023-04-04T23:37:30.637Z,2.55
2023-04-04T23:39:57.010Z,2.54
2023-04-04T23:42:23.541Z,2.51
2023-04-04T23:44:50.892Z,2.64
2023-04-04T23:47:17.234Z,2.49
2023-04-04T23:49:43.681Z,2.45
2023-04-04T23:52:10.187Z,2.52
2023-04-04T23:54:36.581Z,2.44
2023-04-04T23:57:02.964Z,2.41
2023-04-04T23:59:29.766Z,2.40
